sensor_id;sensor_type;location;lat;lon;timestamp;P1;durP1;ratioP1;P2;durP2;ratioP2
52742;SDS011;55583;53.012;6.556;2023-03-17T00:01:45;5.65;;;3.20;;
52742;SDS011;55583;53.012;6.556;2023-03-17T00:04:15;6.18;;;3.40;;
52742;SDS011;55583;53.012;6.556;2023-03-17T00:06:43;6.38;;;3.67;;
52742;SDS011;55583;53.012;6.556;2023-03-17T00:09:12;4.13;;;3.08;;
52742;SDS011;55583;53.012;6.556;2023-03-17T00:11:40;6.60;;;3.42;;
52742;SDS011;55583;53.012;6.556;2023-03-17T00:14:06;7.70;;;3.95;;
52742;SDS011;55583;53.012;6.556;2023-03-17T00:16:36;9.27;;;4.07;;
52742;SDS011;55583;53.012;6.556;2023-03-17T00:21:31;6.93;;;3.60;;
52742;SDS011;55583;53.012;6.556;2023-03-17T00:23:59;6.60;;;3.25;;
52742;SDS011;55583;53.012;6.556;2023-03-17T00:26:25;6.50;;;3.45;;
52742;SDS011;55583;53.012;6.556;2023-03-17T00:28:51;7.57;;;3.90;;
52742;SDS011;55583;53.012;6.556;2023-03-17T00:31:24;5.97;;;3.35;;
52742;SDS011;55583;53.012;6.556;2023-03-17T00:33:53;6.65;;;3.13;;
52742;SDS011;55583;53.012;6.556;2023-03-17T00:36:21;5.65;;;3.33;;
52742;SDS011;55583;53.012;6.556;2023-03-17T00:38:48;6.60;;;3.30;;
52742;SDS011;55583;53.012;6.556;2023-03-17T00:41:15;5.57;;;3.63;;
52742;SDS011;55583;53.012;6.556;2023-03-17T00:43:41;5.15;;;3.42;;
52742;SDS011;55583;53.012;6.556;2023-03-17T00:48:52;6.03;;;3.63;;
52742;SDS011;55583;53.012;6.556;2023-03-17T00:51:19;5.97;;;3.25;;
52742;SDS011;55583;53.012;6.556;2023-03-17T00:53:45;8.23;;;4.18;;
52742;SDS011;55583;53.012;6.556;2023-03-17T00:56:12;6.80;;;3.97;;
52742;SDS011;55583;53.012;6.556;2023-03-17T00:58:43;5.20;;;3.70;;
52742;SDS011;55583;53.012;6.556;2023-03-17T01:01:10;4.55;;;3.45;;
52742;SDS011;55583;53.012;6.556;2023-03-17T01:03:36;3.38;;;2.78;;
52742;SDS011;55583;53.012;6.556;2023-03-17T01:06:03;4.80;;;3.40;;
52742;SDS011;55583;53.012;6.556;2023-03-17T01:08:30;7.18;;;4.05;;
52742;SDS011;55583;53.012;6.556;2023-03-17T01:10:56;5.70;;;3.67;;
52742;SDS011;55583;53.012;6.556;2023-03-17T01:13:23;9.05;;;3.97;;
52742;SDS011;55583;53.012;6.556;2023-03-17T01:15:50;5.25;;;3.58;;
52742;SDS011;55583;53.012;6.556;2023-03-17T01:18:16;5.20;;;3.47;;
52742;SDS011;55583;53.012;6.556;2023-03-17T01:20:44;7.68;;;4.63;;
52742;SDS011;55583;53.012;6.556;2023-03-17T01:23:11;8.40;;;3.92;;
52742;SDS011;55583;53.012;6.556;2023-03-17T01:25:37;7.45;;;3.65;;
52742;SDS011;55583;53.012;6.556;2023-03-17T01:28:04;5.35;;;3.60;;
52742;SDS011;55583;53.012;6.556;2023-03-17T01:33:01;7.60;;;3.00;;
52742;SDS011;55583;53.012;6.556;2023-03-17T01:35:27;8.05;;;4.32;;
52742;SDS011;55583;53.012;6.556;2023-03-17T01:37:53;7.57;;;4.05;;
52742;SDS011;55583;53.012;6.556;2023-03-17T01:40:25;8.63;;;3.70;;
52742;SDS011;55583;53.012;6.556;2023-03-17T01:42:54;6.60;;;3.55;;
52742;SDS011;55583;53.012;6.556;2023-03-17T01:48:46;6.05;;;3.60;;
52742;SDS011;55583;53.012;6.556;2023-03-17T01:57:22;8.27;;;4.03;;
52742;SDS011;55583;53.012;6.556;2023-03-17T02:00:02;4.70;;;3.45;;
52742;SDS011;55583;53.012;6.556;2023-03-17T02:02:38;6.88;;;3.30;;
52742;SDS011;55583;53.012;6.556;2023-03-17T02:05:09;7.28;;;3.22;;
52742;SDS011;55583;53.012;6.556;2023-03-17T02:07:37;5.95;;;3.50;;
52742;SDS011;55583;53.012;6.556;2023-03-17T02:10:04;6.70;;;4.15;;
52742;SDS011;55583;53.012;6.556;2023-03-17T02:12:31;7.63;;;3.97;;
52742;SDS011;55583;53.012;6.556;2023-03-17T02:14:58;5.90;;;4.13;;
52742;SDS011;55583;53.012;6.556;2023-03-17T02:17:24;7.65;;;3.90;;
52742;SDS011;55583;53.012;6.556;2023-03-17T02:19:51;9.82;;;3.22;;
52742;SDS011;55583;53.012;6.556;2023-03-17T02:22:17;6.53;;;3.83;;
52742;SDS011;55583;53.012;6.556;2023-03-17T02:27:19;6.82;;;3.55;;
52742;SDS011;55583;53.012;6.556;2023-03-17T02:29:48;6.65;;;3.83;;
52742;SDS011;55583;53.012;6.556;2023-03-17T02:32:15;7.78;;;3.92;;
52742;SDS011;55583;53.012;6.556;2023-03-17T02:34:43;5.38;;;3.50;;
52742;SDS011;55583;53.012;6.556;2023-03-17T02:37:10;8.43;;;3.33;;
52742;SDS011;55583;53.012;6.556;2023-03-17T02:39:36;9.52;;;3.58;;
52742;SDS011;55583;53.012;6.556;2023-03-17T02:42:02;6.63;;;3.45;;
52742;SDS011;55583;53.012;6.556;2023-03-17T02:44:28;5.57;;;3.90;;
52742;SDS011;55583;53.012;6.556;2023-03-17T02:46:54;7.75;;;3.60;;
52742;SDS011;55583;53.012;6.556;2023-03-17T02:49:20;7.22;;;4.30;;
52742;SDS011;55583;53.012;6.556;2023-03-17T02:51:46;11.68;;;3.90;;
52742;SDS011;55583;53.012;6.556;2023-03-17T02:54:12;10.32;;;3.65;;
52742;SDS011;55583;53.012;6.556;2023-03-17T02:56:38;5.63;;;3.80;;
52742;SDS011;55583;53.012;6.556;2023-03-17T02:59:03;5.28;;;3.90;;
52742;SDS011;55583;53.012;6.556;2023-03-17T03:01:29;5.85;;;4.03;;
52742;SDS011;55583;53.012;6.556;2023-03-17T03:03:55;7.90;;;3.88;;
52742;SDS011;55583;53.012;6.556;2023-03-17T03:06:22;6.97;;;3.72;;
52742;SDS011;55583;53.012;6.556;2023-03-17T03:08:50;5.95;;;3.33;;
52742;SDS011;55583;53.012;6.556;2023-03-17T03:11:16;6.95;;;3.90;;
52742;SDS011;55583;53.012;6.556;2023-03-17T03:13:43;9.60;;;3.85;;
52742;SDS011;55583;53.012;6.556;2023-03-17T03:16:09;6.20;;;3.70;;
52742;SDS011;55583;53.012;6.556;2023-03-17T03:18:34;7.22;;;3.67;;
52742;SDS011;55583;53.012;6.556;2023-03-17T03:21:01;4.65;;;3.88;;
52742;SDS011;55583;53.012;6.556;2023-03-17T03:23:28;4.70;;;3.28;;
52742;SDS011;55583;53.012;6.556;2023-03-17T03:25:53;9.93;;;4.63;;
52742;SDS011;55583;53.012;6.556;2023-03-17T03:28:19;6.53;;;4.00;;
52742;SDS011;55583;53.012;6.556;2023-03-17T03:30:45;7.72;;;3.83;;
52742;SDS011;55583;53.012;6.556;2023-03-17T03:33:11;7.55;;;3.70;;
52742;SDS011;55583;53.012;6.556;2023-03-17T03:35:38;7.70;;;3.92;;
52742;SDS011;55583;53.012;6.556;2023-03-17T03:38:05;6.72;;;3.55;;
52742;SDS011;55583;53.012;6.556;2023-03-17T03:40:31;7.38;;;3.85;;
52742;SDS011;55583;53.012;6.556;2023-03-17T03:42:57;6.05;;;3.65;;
52742;SDS011;55583;53.012;6.556;2023-03-17T03:45:23;4.75;;;3.42;;
52742;SDS011;55583;53.012;6.556;2023-03-17T03:47:49;5.93;;;3.58;;
52742;SDS011;55583;53.012;6.556;2023-03-17T03:50:14;6.10;;;3.50;;
52742;SDS011;55583;53.012;6.556;2023-03-17T03:52:40;6.63;;;3.78;;
52742;SDS011;55583;53.012;6.556;2023-03-17T03:55:06;7.07;;;3.60;;
52742;SDS011;55583;53.012;6.556;2023-03-17T03:57:33;8.32;;;3.75;;
52742;SDS011;55583;53.012;6.556;2023-03-17T03:59:59;8.60;;;4.13;;
52742;SDS011;55583;53.012;6.556;2023-03-17T04:02:24;10.05;;;4.47;;
52742;SDS011;55583;53.012;6.556;2023-03-17T04:04:51;8.93;;;4.28;;
52742;SDS011;55583;53.012;6.556;2023-03-17T04:07:18;6.13;;;3.42;;
52742;SDS011;55583;53.012;6.556;2023-03-17T04:09:45;6.85;;;3.80;;
52742;SDS011;55583;53.012;6.556;2023-03-17T04:12:13;5.38;;;3.65;;
52742;SDS011;55583;53.012;6.556;2023-03-17T04:14:39;7.00;;;3.75;;
52742;SDS011;55583;53.012;6.556;2023-03-17T04:17:06;6.10;;;3.67;;
52742;SDS011;55583;53.012;6.556;2023-03-17T04:19:33;5.10;;;3.90;;
52742;SDS011;55583;53.012;6.556;2023-03-17T04:21:59;8.80;;;3.97;;
52742;SDS011;55583;53.012;6.556;2023-03-17T04:24:24;6.13;;;3.63;;
52742;SDS011;55583;53.012;6.556;2023-03-17T04:26:51;4.90;;;3.58;;
52742;SDS011;55583;53.012;6.556;2023-03-17T04:29:17;6.18;;;3.58;;
52742;SDS011;55583;53.012;6.556;2023-03-17T04:31:44;5.97;;;3.58;;
52742;SDS011;55583;53.012;6.556;2023-03-17T04:34:14;12.75;;;4.18;;
52742;SDS011;55583;53.012;6.556;2023-03-17T04:36:42;7.65;;;3.60;;
52742;SDS011;55583;53.012;6.556;2023-03-17T04:39:09;7.60;;;4.15;;
52742;SDS011;55583;53.012;6.556;2023-03-17T04:41:35;4.35;;;3.00;;
52742;SDS011;55583;53.012;6.556;2023-03-17T04:44:01;9.55;;;3.90;;
52742;SDS011;55583;53.012;6.556;2023-03-17T04:46:26;7.68;;;4.05;;
52742;SDS011;55583;53.012;6.556;2023-03-17T04:48:52;5.10;;;3.60;;
52742;SDS011;55583;53.012;6.556;2023-03-17T04:51:18;7.30;;;3.83;;
52742;SDS011;55583;53.012;6.556;2023-03-17T04:53:44;5.38;;;3.50;;
52742;SDS011;55583;53.012;6.556;2023-03-17T04:56:10;5.18;;;3.30;;
52742;SDS011;55583;53.012;6.556;2023-03-17T04:58:36;6.18;;;3.30;;
52742;SDS011;55583;53.012;6.556;2023-03-17T05:01:02;5.15;;;3.65;;
52742;SDS011;55583;53.012;6.556;2023-03-17T05:03:29;8.68;;;3.83;;
52742;SDS011;55583;53.012;6.556;2023-03-17T05:05:55;5.78;;;3.63;;
52742;SDS011;55583;53.012;6.556;2023-03-17T05:08:22;7.03;;;3.88;;
52742;SDS011;55583;53.012;6.556;2023-03-17T05:10:48;7.03;;;3.95;;
52742;SDS011;55583;53.012;6.556;2023-03-17T05:13:13;6.03;;;3.30;;
52742;SDS011;55583;53.012;6.556;2023-03-17T05:15:42;9.75;;;3.78;;
52742;SDS011;55583;53.012;6.556;2023-03-17T05:18:10;7.07;;;3.78;;
52742;SDS011;55583;53.012;6.556;2023-03-17T05:20:36;7.82;;;4.15;;
52742;SDS011;55583;53.012;6.556;2023-03-17T05:23:02;8.95;;;3.80;;
52742;SDS011;55583;53.012;6.556;2023-03-17T05:25:27;12.07;;;3.83;;
52742;SDS011;55583;53.012;6.556;2023-03-17T05:27:55;7.18;;;3.83;;
52742;SDS011;55583;53.012;6.556;2023-03-17T05:30:22;6.35;;;3.78;;
52742;SDS011;55583;53.012;6.556;2023-03-17T05:32:49;15.27;;;4.35;;
52742;SDS011;55583;53.012;6.556;2023-03-17T05:35:15;5.32;;;3.38;;
52742;SDS011;55583;53.012;6.556;2023-03-17T05:37:41;7.00;;;3.72;;
52742;SDS011;55583;53.012;6.556;2023-03-17T05:40:08;9.70;;;4.28;;
52742;SDS011;55583;53.012;6.556;2023-03-17T05:42:34;5.32;;;3.50;;
52742;SDS011;55583;53.012;6.556;2023-03-17T05:45:00;9.88;;;4.25;;
52742;SDS011;55583;53.012;6.556;2023-03-17T05:47:26;8.73;;;3.70;;
52742;SDS011;55583;53.012;6.556;2023-03-17T05:49:52;5.35;;;3.83;;
52742;SDS011;55583;53.012;6.556;2023-03-17T05:52:18;7.47;;;3.97;;
52742;SDS011;55583;53.012;6.556;2023-03-17T05:54:44;4.95;;;3.28;;
52742;SDS011;55583;53.012;6.556;2023-03-17T05:57:12;8.25;;;3.45;;
52742;SDS011;55583;53.012;6.556;2023-03-17T05:59:39;7.90;;;3.38;;
52742;SDS011;55583;53.012;6.556;2023-03-17T06:02:06;6.03;;;4.03;;
52742;SDS011;55583;53.012;6.556;2023-03-17T06:04:32;5.65;;;3.65;;
52742;SDS011;55583;53.012;6.556;2023-03-17T06:06:58;8.90;;;4.20;;
52742;SDS011;55583;53.012;6.556;2023-03-17T06:09:24;12.07;;;4.53;;
52742;SDS011;55583;53.012;6.556;2023-03-17T06:11:50;9.30;;;4.25;;
52742;SDS011;55583;53.012;6.556;2023-03-17T06:14:16;10.30;;;3.63;;
52742;SDS011;55583;53.012;6.556;2023-03-17T06:16:42;6.55;;;3.42;;
52742;SDS011;55583;53.012;6.556;2023-03-17T06:19:08;9.18;;;3.42;;
52742;SDS011;55583;53.012;6.556;2023-03-17T06:21:33;10.02;;;4.35;;
52742;SDS011;55583;53.012;6.556;2023-03-17T06:23:59;7.55;;;4.38;;
52742;SDS011;55583;53.012;6.556;2023-03-17T06:26:25;5.13;;;3.50;;
52742;SDS011;55583;53.012;6.556;2023-03-17T06:28:51;6.72;;;4.20;;
52742;SDS011;55583;53.012;6.556;2023-03-17T06:31:16;6.80;;;3.78;;
52742;SDS011;55583;53.012;6.556;2023-03-17T06:33:42;8.93;;;4.00;;
52742;SDS011;55583;53.012;6.556;2023-03-17T06:36:08;7.05;;;4.45;;
52742;SDS011;55583;53.012;6.556;2023-03-17T06:38:33;5.25;;;3.80;;
52742;SDS011;55583;53.012;6.556;2023-03-17T06:40:59;6.68;;;4.05;;
52742;SDS011;55583;53.012;6.556;2023-03-17T06:43:25;6.50;;;4.80;;
52742;SDS011;55583;53.012;6.556;2023-03-17T06:45:51;6.82;;;4.30;;
52742;SDS011;55583;53.012;6.556;2023-03-17T06:48:17;6.68;;;3.60;;
52742;SDS011;55583;53.012;6.556;2023-03-17T06:50:43;7.40;;;4.50;;
52742;SDS011;55583;53.012;6.556;2023-03-17T06:53:11;6.75;;;3.78;;
52742;SDS011;55583;53.012;6.556;2023-03-17T06:55:37;8.38;;;3.92;;
52742;SDS011;55583;53.012;6.556;2023-03-17T06:58:03;10.65;;;3.72;;
52742;SDS011;55583;53.012;6.556;2023-03-17T07:00:29;7.88;;;4.45;;
52742;SDS011;55583;53.012;6.556;2023-03-17T07:02:55;6.38;;;3.35;;
52742;SDS011;55583;53.012;6.556;2023-03-17T07:05:21;6.00;;;4.45;;
52742;SDS011;55583;53.012;6.556;2023-03-17T07:07:47;8.13;;;4.53;;
52742;SDS011;55583;53.012;6.556;2023-03-17T07:10:14;5.97;;;3.80;;
52742;SDS011;55583;53.012;6.556;2023-03-17T07:12:40;7.25;;;3.78;;
52742;SDS011;55583;53.012;6.556;2023-03-17T07:15:05;9.40;;;3.85;;
52742;SDS011;55583;53.012;6.556;2023-03-17T07:17:33;8.82;;;3.83;;
52742;SDS011;55583;53.012;6.556;2023-03-17T07:19:59;9.15;;;4.13;;
52742;SDS011;55583;53.012;6.556;2023-03-17T07:22:24;14.50;;;4.35;;
52742;SDS011;55583;53.012;6.556;2023-03-17T07:24:51;7.28;;;4.05;;
52742;SDS011;55583;53.012;6.556;2023-03-17T07:27:17;6.80;;;3.85;;
52742;SDS011;55583;53.012;6.556;2023-03-17T07:29:43;5.68;;;3.58;;
52742;SDS011;55583;53.012;6.556;2023-03-17T07:32:09;9.32;;;3.95;;
52742;SDS011;55583;53.012;6.556;2023-03-17T07:34:35;9.55;;;4.10;;
52742;SDS011;55583;53.012;6.556;2023-03-17T07:37:01;6.97;;;3.58;;
52742;SDS011;55583;53.012;6.556;2023-03-17T07:39:28;5.70;;;3.35;;
52742;SDS011;55583;53.012;6.556;2023-03-17T07:41:53;9.57;;;4.32;;
52742;SDS011;55583;53.012;6.556;2023-03-17T07:44:22;8.07;;;3.72;;
52742;SDS011;55583;53.012;6.556;2023-03-17T07:46:49;5.80;;;3.30;;
52742;SDS011;55583;53.012;6.556;2023-03-17T07:49:15;6.00;;;3.40;;
52742;SDS011;55583;53.012;6.556;2023-03-17T07:51:41;8.13;;;4.13;;
52742;SDS011;55583;53.012;6.556;2023-03-17T07:54:08;6.88;;;4.05;;
52742;SDS011;55583;53.012;6.556;2023-03-17T07:56:34;6.68;;;3.80;;
52742;SDS011;55583;53.012;6.556;2023-03-17T07:59:00;8.75;;;3.55;;
52742;SDS011;55583;53.012;6.556;2023-03-17T08:01:26;5.35;;;3.78;;
52742;SDS011;55583;53.012;6.556;2023-03-17T08:03:53;7.05;;;3.83;;
52742;SDS011;55583;53.012;6.556;2023-03-17T08:06:19;6.53;;;3.65;;
52742;SDS011;55583;53.012;6.556;2023-03-17T08:08:45;6.57;;;4.22;;
52742;SDS011;55583;53.012;6.556;2023-03-17T08:11:11;6.00;;;3.92;;
52742;SDS011;55583;53.012;6.556;2023-03-17T08:13:37;5.10;;;3.30;;
52742;SDS011;55583;53.012;6.556;2023-03-17T08:16:03;5.40;;;3.35;;
52742;SDS011;55583;53.012;6.556;2023-03-17T08:18:29;7.93;;;3.95;;
52742;SDS011;55583;53.012;6.556;2023-03-17T08:20:54;7.38;;;3.58;;
52742;SDS011;55583;53.012;6.556;2023-03-17T08:23:20;6.95;;;4.10;;
52742;SDS011;55583;53.012;6.556;2023-03-17T08:25:46;6.75;;;4.00;;
52742;SDS011;55583;53.012;6.556;2023-03-17T08:28:12;6.65;;;3.55;;
52742;SDS011;55583;53.012;6.556;2023-03-17T08:30:39;7.13;;;3.60;;
52742;SDS011;55583;53.012;6.556;2023-03-17T08:33:06;7.60;;;3.72;;
52742;SDS011;55583;53.012;6.556;2023-03-17T08:35:33;7.90;;;3.92;;
52742;SDS011;55583;53.012;6.556;2023-03-17T08:37:59;5.82;;;3.42;;
52742;SDS011;55583;53.012;6.556;2023-03-17T08:40:28;6.88;;;3.55;;
52742;SDS011;55583;53.012;6.556;2023-03-17T08:42:54;5.15;;;3.53;;
52742;SDS011;55583;53.012;6.556;2023-03-17T08:45:20;7.50;;;4.18;;
52742;SDS011;55583;53.012;6.556;2023-03-17T08:47:46;7.57;;;3.75;;
52742;SDS011;55583;53.012;6.556;2023-03-17T08:50:16;6.00;;;3.90;;
52742;SDS011;55583;53.012;6.556;2023-03-17T08:52:44;8.70;;;4.38;;
52742;SDS011;55583;53.012;6.556;2023-03-17T08:55:11;7.60;;;3.65;;
52742;SDS011;55583;53.012;6.556;2023-03-17T08:57:37;8.43;;;3.97;;
52742;SDS011;55583;53.012;6.556;2023-03-17T09:00:03;8.45;;;4.00;;
52742;SDS011;55583;53.012;6.556;2023-03-17T09:02:38;6.70;;;4.00;;
52742;SDS011;55583;53.012;6.556;2023-03-17T09:05:07;7.30;;;4.40;;
52742;SDS011;55583;53.012;6.556;2023-03-17T09:07:34;5.20;;;3.33;;
52742;SDS011;55583;53.012;6.556;2023-03-17T09:10:00;7.30;;;4.10;;
52742;SDS011;55583;53.012;6.556;2023-03-17T09:12:29;6.22;;;3.90;;
52742;SDS011;55583;53.012;6.556;2023-03-17T09:14:55;5.03;;;3.80;;
52742;SDS011;55583;53.012;6.556;2023-03-17T09:17:21;7.38;;;3.75;;
52742;SDS011;55583;53.012;6.556;2023-03-17T09:19:47;6.28;;;3.72;;
52742;SDS011;55583;53.012;6.556;2023-03-17T09:22:13;7.63;;;3.50;;
52742;SDS011;55583;53.012;6.556;2023-03-17T09:24:40;8.48;;;4.22;;
52742;SDS011;55583;53.012;6.556;2023-03-17T09:27:06;10.52;;;4.30;;
52742;SDS011;55583;53.012;6.556;2023-03-17T09:29:32;6.97;;;3.80;;
52742;SDS011;55583;53.012;6.556;2023-03-17T09:31:58;5.88;;;3.80;;
52742;SDS011;55583;53.012;6.556;2023-03-17T09:34:24;5.72;;;3.65;;
52742;SDS011;55583;53.012;6.556;2023-03-17T09:36:50;6.13;;;3.25;;
52742;SDS011;55583;53.012;6.556;2023-03-17T09:39:17;7.82;;;4.00;;
52742;SDS011;55583;53.012;6.556;2023-03-17T09:42:00;7.25;;;4.07;;
52742;SDS011;55583;53.012;6.556;2023-03-17T09:50:24;5.22;;;3.65;;
52742;SDS011;55583;53.012;6.556;2023-03-17T09:52:54;4.75;;;3.65;;
52742;SDS011;55583;53.012;6.556;2023-03-17T09:55:30;7.65;;;3.30;;
52742;SDS011;55583;53.012;6.556;2023-03-17T09:57:58;6.85;;;3.42;;
52742;SDS011;55583;53.012;6.556;2023-03-17T10:00:25;4.80;;;3.35;;
52742;SDS011;55583;53.012;6.556;2023-03-17T10:02:53;6.53;;;3.47;;
52742;SDS011;55583;53.012;6.556;2023-03-17T10:16:13;6.72;;;3.38;;
52742;SDS011;55583;53.012;6.556;2023-03-17T10:18:57;4.90;;;3.58;;
52742;SDS011;55583;53.012;6.556;2023-03-17T10:21:31;6.30;;;3.53;;
52742;SDS011;55583;53.012;6.556;2023-03-17T10:24:00;9.35;;;3.40;;
52742;SDS011;55583;53.012;6.556;2023-03-17T10:26:34;8.10;;;4.32;;
52742;SDS011;55583;53.012;6.556;2023-03-17T10:29:16;5.05;;;3.78;;
52742;SDS011;55583;53.012;6.556;2023-03-17T10:31:45;7.18;;;4.00;;
52742;SDS011;55583;53.012;6.556;2023-03-17T10:36:46;5.28;;;3.60;;
52742;SDS011;55583;53.012;6.556;2023-03-17T10:39:18;5.82;;;3.72;;
52742;SDS011;55583;53.012;6.556;2023-03-17T10:41:59;7.40;;;3.60;;
52742;SDS011;55583;53.012;6.556;2023-03-17T10:46:58;5.47;;;3.40;;
52742;SDS011;55583;53.012;6.556;2023-03-17T10:49:24;5.60;;;4.10;;
52742;SDS011;55583;53.012;6.556;2023-03-17T10:51:51;5.22;;;3.65;;
52742;SDS011;55583;53.012;6.556;2023-03-17T10:54:18;7.53;;;3.58;;
52742;SDS011;55583;53.012;6.556;2023-03-17T10:56:47;4.82;;;3.75;;
52742;SDS011;55583;53.012;6.556;2023-03-17T10:59:20;6.68;;;4.10;;
52742;SDS011;55583;53.012;6.556;2023-03-17T11:01:53;5.13;;;3.97;;
52742;SDS011;55583;53.012;6.556;2023-03-17T11:06:57;5.22;;;4.20;;
52742;SDS011;55583;53.012;6.556;2023-03-17T11:09:25;7.60;;;4.88;;
52742;SDS011;55583;53.012;6.556;2023-03-17T11:15:04;5.40;;;3.83;;
52742;SDS011;55583;53.012;6.556;2023-03-17T11:20:26;11.45;;;4.18;;
52742;SDS011;55583;53.012;6.556;2023-03-17T11:23:01;8.18;;;4.50;;
52742;SDS011;55583;53.012;6.556;2023-03-17T11:25:46;6.15;;;3.92;;
52742;SDS011;55583;53.012;6.556;2023-03-17T11:28:18;8.15;;;4.55;;
52742;SDS011;55583;53.012;6.556;2023-03-17T11:31:00;9.48;;;4.53;;
52742;SDS011;55583;53.012;6.556;2023-03-17T11:39:12;5.65;;;4.22;;
52742;SDS011;55583;53.012;6.556;2023-03-17T11:41:48;5.32;;;3.80;;
52742;SDS011;55583;53.012;6.556;2023-03-17T11:44:36;6.28;;;3.53;;
52742;SDS011;55583;53.012;6.556;2023-03-17T11:47:35;8.98;;;4.95;;
52742;SDS011;55583;53.012;6.556;2023-03-17T11:55:58;7.20;;;4.57;;
52742;SDS011;55583;53.012;6.556;2023-03-17T11:58:32;5.22;;;4.20;;
52742;SDS011;55583;53.012;6.556;2023-03-17T12:00:59;7.77;;;4.30;;
52742;SDS011;55583;53.012;6.556;2023-03-17T12:03:41;7.20;;;4.60;;
52742;SDS011;55583;53.012;6.556;2023-03-17T12:06:28;5.40;;;4.38;;
52742;SDS011;55583;53.012;6.556;2023-03-17T12:11:28;7.88;;;4.63;;
52742;SDS011;55583;53.012;6.556;2023-03-17T12:14:06;8.63;;;4.17;;
52742;SDS011;55583;53.012;6.556;2023-03-17T12:20:11;7.32;;;4.35;;
52742;SDS011;55583;53.012;6.556;2023-03-17T12:25:22;9.27;;;4.50;;
52742;SDS011;55583;53.012;6.556;2023-03-17T12:30:54;8.98;;;4.75;;
52742;SDS011;55583;53.012;6.556;2023-03-17T12:33:32;9.25;;;4.75;;
52742;SDS011;55583;53.012;6.556;2023-03-17T12:36:02;8.35;;;4.63;;
52742;SDS011;55583;53.012;6.556;2023-03-17T12:38:37;7.18;;;4.53;;
52742;SDS011;55583;53.012;6.556;2023-03-17T12:41:15;7.28;;;4.82;;
52742;SDS011;55583;53.012;6.556;2023-03-17T12:44:02;7.65;;;4.47;;
52742;SDS011;55583;53.012;6.556;2023-03-17T12:49:52;7.47;;;4.43;;
52742;SDS011;55583;53.012;6.556;2023-03-17T12:53:01;5.93;;;4.47;;
52742;SDS011;55583;53.012;6.556;2023-03-17T12:55:46;7.32;;;4.53;;
52742;SDS011;55583;53.012;6.556;2023-03-17T13:06:46;6.95;;;4.70;;
52742;SDS011;55583;53.012;6.556;2023-03-17T13:11:54;8.63;;;5.25;;
52742;SDS011;55583;53.012;6.556;2023-03-17T13:14:25;6.75;;;3.92;;
52742;SDS011;55583;53.012;6.556;2023-03-17T13:20:02;7.38;;;4.70;;
52742;SDS011;55583;53.012;6.556;2023-03-17T13:22:35;7.45;;;4.82;;
52742;SDS011;55583;53.012;6.556;2023-03-17T13:35:40;9.43;;;5.35;;
52742;SDS011;55583;53.012;6.556;2023-03-17T13:44:02;7.22;;;5.18;;
52742;SDS011;55583;53.012;6.556;2023-03-17T13:51:49;10.02;;;5.70;;
52742;SDS011;55583;53.012;6.556;2023-03-17T13:56:52;9.65;;;5.95;;
52742;SDS011;55583;53.012;6.556;2023-03-17T13:59:20;7.15;;;5.70;;
52742;SDS011;55583;53.012;6.556;2023-03-17T14:02:13;8.73;;;5.30;;
52742;SDS011;55583;53.012;6.556;2023-03-17T14:04:45;9.32;;;5.40;;
52742;SDS011;55583;53.012;6.556;2023-03-17T14:07:21;8.13;;;4.68;;
52742;SDS011;55583;53.012;6.556;2023-03-17T14:09:50;6.72;;;5.30;;
52742;SDS011;55583;53.012;6.556;2023-03-17T14:18:07;13.52;;;5.10;;
52742;SDS011;55583;53.012;6.556;2023-03-17T14:20:39;7.82;;;5.25;;
52742;SDS011;55583;53.012;6.556;2023-03-17T14:23:16;5.68;;;4.93;;
52742;SDS011;55583;53.012;6.556;2023-03-17T14:25:42;10.18;;;5.60;;
52742;SDS011;55583;53.012;6.556;2023-03-17T14:28:13;10.50;;;5.60;;
52742;SDS011;55583;53.012;6.556;2023-03-17T14:30:49;12.05;;;6.15;;
52742;SDS011;55583;53.012;6.556;2023-03-17T14:33:38;10.38;;;6.22;;
52742;SDS011;55583;53.012;6.556;2023-03-17T14:36:05;8.63;;;5.55;;
52742;SDS011;55583;53.012;6.556;2023-03-17T14:38:34;8.57;;;5.60;;
52742;SDS011;55583;53.012;6.556;2023-03-17T14:41:05;10.35;;;5.95;;
52742;SDS011;55583;53.012;6.556;2023-03-17T14:43:41;15.63;;;6.20;;
52742;SDS011;55583;53.012;6.556;2023-03-17T14:46:24;12.77;;;5.85;;
52742;SDS011;55583;53.012;6.556;2023-03-17T14:51:57;8.13;;;5.35;;
52742;SDS011;55583;53.012;6.556;2023-03-17T14:54:24;8.85;;;5.53;;
52742;SDS011;55583;53.012;6.556;2023-03-17T14:56:52;12.52;;;5.72;;
52742;SDS011;55583;53.012;6.556;2023-03-17T14:59:28;9.10;;;6.10;;
52742;SDS011;55583;53.012;6.556;2023-03-17T15:01:57;8.05;;;5.60;;
52742;SDS011;55583;53.012;6.556;2023-03-17T15:04:28;10.88;;;5.43;;
52742;SDS011;55583;53.012;6.556;2023-03-17T15:06:57;7.30;;;5.45;;
52742;SDS011;55583;53.012;6.556;2023-03-17T15:09:37;9.07;;;5.63;;
52742;SDS011;55583;53.012;6.556;2023-03-17T15:14:37;10.02;;;6.28;;
52742;SDS011;55583;53.012;6.556;2023-03-17T15:17:05;10.48;;;5.65;;
52742;SDS011;55583;53.012;6.556;2023-03-17T15:19:41;16.95;;;6.43;;
52742;SDS011;55583;53.012;6.556;2023-03-17T15:22:20;11.13;;;6.38;;
52742;SDS011;55583;53.012;6.556;2023-03-17T15:25:37;11.32;;;6.10;;
52742;SDS011;55583;53.012;6.556;2023-03-17T15:27:56;8.18;;;5.35;;
52742;SDS011;55583;53.012;6.556;2023-03-17T15:30:22;9.13;;;6.95;;
52742;SDS011;55583;53.012;6.556;2023-03-17T15:32:51;9.35;;;6.28;;
52742;SDS011;55583;53.012;6.556;2023-03-17T15:35:23;6.85;;;5.55;;
52742;SDS011;55583;53.012;6.556;2023-03-17T15:37:49;10.52;;;6.53;;
52742;SDS011;55583;53.012;6.556;2023-03-17T15:40:14;8.65;;;6.13;;
52742;SDS011;55583;53.012;6.556;2023-03-17T15:42:40;12.00;;;6.55;;
52742;SDS011;55583;53.012;6.556;2023-03-17T15:45:06;12.98;;;6.28;;
52742;SDS011;55583;53.012;6.556;2023-03-17T15:47:33;11.20;;;6.20;;
52742;SDS011;55583;53.012;6.556;2023-03-17T15:50:17;8.25;;;6.25;;
52742;SDS011;55583;53.012;6.556;2023-03-17T15:52:48;7.60;;;5.82;;
52742;SDS011;55583;53.012;6.556;2023-03-17T15:55:21;10.90;;;6.40;;
52742;SDS011;55583;53.012;6.556;2023-03-17T15:57:49;13.18;;;5.68;;
52742;SDS011;55583;53.012;6.556;2023-03-17T16:00:18;14.88;;;6.88;;
52742;SDS011;55583;53.012;6.556;2023-03-17T16:02:46;9.10;;;6.43;;
52742;SDS011;55583;53.012;6.556;2023-03-17T16:05:18;14.68;;;6.80;;
52742;SDS011;55583;53.012;6.556;2023-03-17T16:07:47;10.67;;;6.03;;
52742;SDS011;55583;53.012;6.556;2023-03-17T16:10:22;28.40;;;15.65;;
52742;SDS011;55583;53.012;6.556;2023-03-17T16:12:52;14.38;;;7.35;;
52742;SDS011;55583;53.012;6.556;2023-03-17T16:15:28;11.73;;;6.10;;
52742;SDS011;55583;53.012;6.556;2023-03-17T16:17:56;11.43;;;6.82;;
52742;SDS011;55583;53.012;6.556;2023-03-17T16:20:27;13.40;;;6.78;;
52742;SDS011;55583;53.012;6.556;2023-03-17T16:23:15;11.68;;;7.43;;
52742;SDS011;55583;53.012;6.556;2023-03-17T16:25:51;12.27;;;6.97;;
52742;SDS011;55583;53.012;6.556;2023-03-17T16:30:50;10.15;;;5.65;;
52742;SDS011;55583;53.012;6.556;2023-03-17T16:33:18;13.13;;;7.57;;
52742;SDS011;55583;53.012;6.556;2023-03-17T16:35:49;13.27;;;6.13;;
52742;SDS011;55583;53.012;6.556;2023-03-17T16:38:18;12.15;;;6.70;;
52742;SDS011;55583;53.012;6.556;2023-03-17T16:40:46;14.10;;;7.30;;
52742;SDS011;55583;53.012;6.556;2023-03-17T16:43:19;11.50;;;6.57;;
52742;SDS011;55583;53.012;6.556;2023-03-17T16:45:50;13.13;;;7.35;;
52742;SDS011;55583;53.012;6.556;2023-03-17T16:48:22;11.15;;;6.97;;
52742;SDS011;55583;53.012;6.556;2023-03-17T16:50:48;15.38;;;8.07;;
52742;SDS011;55583;53.012;6.556;2023-03-17T16:53:15;12.60;;;7.90;;
52742;SDS011;55583;53.012;6.556;2023-03-17T16:55:40;15.95;;;7.82;;
52742;SDS011;55583;53.012;6.556;2023-03-17T17:00:39;11.02;;;7.22;;
52742;SDS011;55583;53.012;6.556;2023-03-17T17:03:05;16.10;;;8.35;;
52742;SDS011;55583;53.012;6.556;2023-03-17T17:05:31;16.35;;;7.35;;
52742;SDS011;55583;53.012;6.556;2023-03-17T17:07:57;10.35;;;6.70;;